createdAt,value
2018-02-07T00:00:23.257Z,77.00
2018-02-07T00:02:50.774Z,76.40
2018-02-07T00:05:18.310Z,75.40
2018-02-07T00:07:45.789Z,74.90
2018-02-07T00:10:13.298Z,73.60
2018-02-07T00:12:40.824Z,74.20
2018-02-07T00:15:09.088Z,74.40
2018-02-07T00:17:36.601Z,74.30
2018-02-07T00:20:04.124Z,73.60
2018-02-07T00:22:31.641Z,73.50
2018-02-07T00:24:59.910Z,72.80
2018-02-07T00:27:27.452Z,73.60
2018-02-07T00:29:54.949Z,73.30
2018-02-07T00:32:22.451Z,73.60
2018-02-07T00:34:49.941Z,74.00
2018-02-07T00:37:17.461Z,74.30
2018-02-07T00:39:45.737Z,74.10
2018-02-07T00:42:13.254Z,74.00
2018-02-07T00:44:40.762Z,74.80
2018-02-07T00:47:08.268Z,75.00
2018-02-07T00:49:35.764Z,74.60
2018-02-07T00:52:04.043Z,74.90
2018-02-07T00:54:31.550Z,74.80
2018-02-07T00:56:59.059Z,74.80
2018-02-07T00:59:27.346Z,75.30
2018-02-07T01:01:54.895Z,75.20
2018-02-07T01:06:57.951Z,73.80
2018-02-07T01:09:25.473Z,73.80
2018-02-07T01:11:53.005Z,73.90
2018-02-07T01:14:20.526Z,73.70
2018-02-07T01:16:48.033Z,74.70
2018-02-07T01:19:16.303Z,73.90
2018-02-07T01:21:44.569Z,74.30
2018-02-07T01:24:12.090Z,74.20
2018-02-07T01:26:39.596Z,74.60
2018-02-07T01:29:07.870Z,74.60
2018-02-07T01:31:36.169Z,75.10
2018-02-07T01:34:04.441Z,74.80
2018-02-07T01:36:31.966Z,74.70
2018-02-07T01:38:59.526Z,74.70
2018-02-07T01:41:27.073Z,74.40
2018-02-07T01:43:54.600Z,74.30
2018-02-07T01:46:22.112Z,75.20
2018-02-07T01:51:23.691Z,75.80
2018-02-07T01:53:51.994Z,76.20
2018-02-07T01:56:19.493Z,76.10
2018-02-07T01:58:47.051Z,76.60
2018-02-07T02:01:14.568Z,76.50
2018-02-07T02:03:42.091Z,76.50
2018-02-07T02:06:10.379Z,76.70
2018-02-07T02:08:38.667Z,77.50
2018-02-07T02:11:06.933Z,76.70
2018-02-07T02:13:35.254Z,77.70
2018-02-07T02:16:02.756Z,76.80
2018-02-07T02:18:30.268Z,76.70
2018-02-07T02:20:57.770Z,77.10
2018-02-07T02:23:25.319Z,76.80
2018-02-07T02:25:52.845Z,76.80
2018-02-07T02:28:20.349Z,76.70
2018-02-07T02:30:47.858Z,76.80
2018-02-07T02:33:15.365Z,76.90
2018-02-07T02:35:48.820Z,76.80
2018-02-07T02:38:16.330Z,76.80
2018-02-07T02:40:43.834Z,76.90
2018-02-07T02:43:11.381Z,76.30
2018-02-07T02:45:38.896Z,76.30
2018-02-07T02:48:06.401Z,76.40
2018-02-07T02:50:33.919Z,76.30
2018-02-07T02:53:01.430Z,76.60
2018-02-07T02:55:28.929Z,76.50
2018-02-07T02:57:56.429Z,76.10
2018-02-07T03:00:23.942Z,76.00
2018-02-07T03:02:51.446Z,76.10
2018-02-07T03:05:18.953Z,76.40
2018-02-07T03:07:46.469Z,76.10
2018-02-07T03:10:13.989Z,76.10
2018-02-07T03:12:42.266Z,76.80
2018-02-07T03:15:09.786Z,76.80
2018-02-07T03:17:37.326Z,76.90
2018-02-07T03:20:04.839Z,76.10
2018-02-07T03:22:33.113Z,75.50
2018-02-07T03:25:00.644Z,75.30
2018-02-07T03:27:28.910Z,75.20
2018-02-07T03:29:56.461Z,75.10
2018-02-07T03:32:23.977Z,74.60
2018-02-07T03:34:51.498Z,75.00
2018-02-07T03:37:19.043Z,75.20
2018-02-07T03:39:46.588Z,75.50
2018-02-07T03:42:14.136Z,75.80
2018-02-07T03:44:42.424Z,75.90
2018-02-07T03:47:10.003Z,75.90
2018-02-07T03:49:37.511Z,76.10
2018-02-07T03:52:05.825Z,74.90
2018-02-07T03:54:33.367Z,74.90
2018-02-07T03:57:00.942Z,75.10
2018-02-07T03:59:28.480Z,75.90
2018-02-07T04:01:56.780Z,76.10
2018-02-07T04:04:24.294Z,76.10
2018-02-07T04:06:52.629Z,76.10
2018-02-07T04:09:20.163Z,76.00
2018-02-07T04:11:47.721Z,75.30
2018-02-07T04:14:15.275Z,75.80
2018-02-07T04:16:43.557Z,75.30
2018-02-07T04:19:11.072Z,75.30
2018-02-07T04:21:38.577Z,75.30
2018-02-07T04:24:06.078Z,75.30
2018-02-07T04:26:33.601Z,74.90
2018-02-07T04:29:01.089Z,74.60
2018-02-07T04:31:28.588Z,74.40
2018-02-07T04:33:56.872Z,75.30
2018-02-07T04:36:24.414Z,75.20
2018-02-07T04:38:51.914Z,74.90
2018-02-07T04:41:19.448Z,75.00
2018-02-07T04:43:47.738Z,75.20
2018-02-07T04:46:16.006Z,75.00
2018-02-07T04:48:43.533Z,75.00
2018-02-07T04:51:11.065Z,74.60
2018-02-07T04:53:38.600Z,74.70
2018-02-07T04:56:06.166Z,74.90
2018-02-07T04:58:33.689Z,74.80
2018-02-07T05:01:01.994Z,74.70
2018-02-07T05:03:29.513Z,74.60
2018-02-07T05:05:57.041Z,74.70
2018-02-07T05:08:24.566Z,74.50
2018-02-07T05:10:52.080Z,75.00
2018-02-07T05:13:19.619Z,74.60
2018-02-07T05:15:47.138Z,75.10
2018-02-07T05:18:14.667Z,75.10
2018-02-07T05:20:42.200Z,74.70
2018-02-07T05:23:09.717Z,74.80
2018-02-07T05:25:37.222Z,75.40
2018-02-07T05:28:04.751Z,75.30
2018-02-07T05:30:32.314Z,75.50
2018-02-07T05:32:59.844Z,75.60
2018-02-07T05:35:28.118Z,74.90
2018-02-07T05:37:56.385Z,74.40
2018-02-07T05:40:24.649Z,74.80
2018-02-07T05:42:52.185Z,74.80
2018-02-07T05:45:19.701Z,75.00
2018-02-07T05:47:47.293Z,74.30
2018-02-07T05:50:14.938Z,74.30
2018-02-07T05:52:42.473Z,74.10
2018-02-07T05:55:10.800Z,74.30
2018-02-07T05:57:38.322Z,74.30
2018-02-07T06:00:05.830Z,74.70
2018-02-07T06:02:33.348Z,74.80
2018-02-07T06:05:00.871Z,74.70
2018-02-07T06:07:28.419Z,75.00
2018-02-07T06:09:55.929Z,75.00
2018-02-07T06:12:23.419Z,75.40
2018-02-07T06:14:51.713Z,75.80
2018-02-07T06:17:19.234Z,75.80
2018-02-07T06:19:46.749Z,75.80
2018-02-07T06:22:15.022Z,75.80
2018-02-07T06:24:43.330Z,76.30
2018-02-07T06:27:10.869Z,76.30
2018-02-07T06:29:39.168Z,76.40
2018-02-07T06:32:06.679Z,76.20
2018-02-07T06:34:35.025Z,76.80
2018-02-07T06:37:02.558Z,76.70
2018-02-07T06:39:30.090Z,77.00
2018-02-07T06:41:58.360Z,77.30
2018-02-07T06:44:26.681Z,76.90
2018-02-07T06:46:54.293Z,76.90
2018-02-07T06:49:22.582Z,76.90
2018-02-07T06:51:50.855Z,77.10
2018-02-07T06:54:19.133Z,77.10
2018-02-07T06:56:47.452Z,77.30
2018-02-07T06:59:14.979Z,77.20
2018-02-07T07:01:43.281Z,77.80
2018-02-07T07:04:10.797Z,77.80
2018-02-07T07:06:38.317Z,77.80
2018-02-07T07:09:05.826Z,77.90
2018-02-07T07:11:34.156Z,77.10
2018-02-07T07:14:01.677Z,77.00
2018-02-07T07:16:29.983Z,76.40
2018-02-07T07:18:57.461Z,76.30
2018-02-07T07:21:24.968Z,76.50
2018-02-07T07:23:53.221Z,76.60
2018-02-07T07:26:21.555Z,78.00
2018-02-07T07:28:49.057Z,77.40
2018-02-07T07:31:17.372Z,78.10
2018-02-07T07:33:44.873Z,78.00
2018-02-07T07:36:12.405Z,78.00
2018-02-07T07:38:39.917Z,78.00
2018-02-07T07:41:08.189Z,78.50
2018-02-07T07:43:36.460Z,77.40
2018-02-07T07:46:03.981Z,77.30
2018-02-07T07:48:31.498Z,77.60
2018-02-07T07:50:59.781Z,77.40
2018-02-07T07:53:28.039Z,77.00
2018-02-07T07:55:55.512Z,77.00
2018-02-07T07:58:23.936Z,77.00
2018-02-07T08:00:51.458Z,76.80
2018-02-07T08:03:19.005Z,77.60
2018-02-07T08:05:47.326Z,77.90
2018-02-07T08:08:14.856Z,77.80
2018-02-07T08:10:42.393Z,78.30
2018-02-07T08:13:10.696Z,77.50
2018-02-07T08:15:38.241Z,77.40
2018-02-07T08:18:05.791Z,78.30
2018-02-07T08:20:34.085Z,78.80
2018-02-07T08:23:01.630Z,78.80
2018-02-07T08:25:29.261Z,78.30
2018-02-07T08:27:56.879Z,78.20
2018-02-07T08:30:24.418Z,78.30
2018-02-07T08:32:52.879Z,77.60
2018-02-07T08:35:20.454Z,77.60
2018-02-07T08:37:48.770Z,78.80
2018-02-07T08:40:16.429Z,78.80
2018-02-07T08:42:44.094Z,78.70
2018-02-07T08:45:11.605Z,79.30
2018-02-07T08:47:39.985Z,78.50
2018-02-07T08:50:08.250Z,78.50
2018-02-07T08:52:35.895Z,78.40
2018-02-07T08:55:03.440Z,78.50
2018-02-07T08:57:31.734Z,78.50
2018-02-07T08:59:59.299Z,78.50
2018-02-07T09:02:26.817Z,78.80
2018-02-07T09:04:54.352Z,78.60
2018-02-07T09:07:22.645Z,78.60
2018-02-07T09:09:50.173Z,78.60
2018-02-07T09:12:18.544Z,78.50
2018-02-07T09:14:46.214Z,78.40
2018-02-07T09:17:14.552Z,78.70
2018-02-07T09:19:42.069Z,78.60
2018-02-07T09:22:09.611Z,78.70
2018-02-07T09:24:37.914Z,78.50
2018-02-07T09:27:05.461Z,78.50
2018-02-07T09:29:33.782Z,79.20
2018-02-07T09:32:01.330Z,79.20
2018-02-07T09:34:28.871Z,78.90
2018-02-07T09:36:56.406Z,78.60
2018-02-07T09:39:24.728Z,78.60
2018-02-07T09:41:52.286Z,78.60
2018-02-07T09:44:19.814Z,78.40
2018-02-07T09:46:47.355Z,79.00
2018-02-07T09:49:15.682Z,77.80
2018-02-07T09:51:43.229Z,77.80
2018-02-07T09:54:10.812Z,78.00
2018-02-07T09:56:38.321Z,78.00
2018-02-07T09:59:06.622Z,77.60
2018-02-07T10:01:34.236Z,77.50
2018-02-07T10:04:01.750Z,77.80
2018-02-07T10:06:29.312Z,78.50
2018-02-07T10:08:56.837Z,78.00
2018-02-07T10:11:25.219Z,78.60
2018-02-07T10:13:52.951Z,78.50
2018-02-07T10:16:20.486Z,78.30
2018-02-07T10:18:48.104Z,78.10
2018-02-07T10:21:15.828Z,78.20
2018-02-07T10:23:43.519Z,77.60
2018-02-07T10:26:11.970Z,77.80
2018-02-07T10:28:39.649Z,77.80
2018-02-07T10:31:07.336Z,77.80
2018-02-07T10:33:34.905Z,78.20
2018-02-07T10:36:02.474Z,78.00
2018-02-07T10:38:30.081Z,78.00
2018-02-07T10:40:57.639Z,77.70
2018-02-07T10:43:25.190Z,77.10
2018-02-07T10:45:52.738Z,77.20
2018-02-07T10:48:20.260Z,77.00
2018-02-07T10:50:47.973Z,76.90
2018-02-07T10:53:15.513Z,76.80
2018-02-07T10:55:43.051Z,77.80
2018-02-07T10:58:10.710Z,77.80
2018-02-07T11:00:38.272Z,77.20
2018-02-07T11:03:05.821Z,76.70
2018-02-07T11:05:34.126Z,76.10
2018-02-07T11:08:01.657Z,76.00
2018-02-07T11:10:29.214Z,76.80
2018-02-07T11:12:57.486Z,75.70
2018-02-07T11:15:25.814Z,75.90
2018-02-07T11:17:53.338Z,75.80
2018-02-07T11:20:20.963Z,76.00
2018-02-07T11:22:48.624Z,75.00
2018-02-07T11:25:16.154Z,76.70
2018-02-07T11:27:43.706Z,76.90
2018-02-07T11:30:11.262Z,76.80
2018-02-07T11:32:38.835Z,76.80
2018-02-07T11:35:06.389Z,75.60
2018-02-07T11:37:33.934Z,75.70
2018-02-07T11:40:01.497Z,76.40
2018-02-07T11:42:29.098Z,76.60
2018-02-07T11:44:56.748Z,76.30
2018-02-07T11:47:24.287Z,76.70
2018-02-07T11:49:51.813Z,76.00
2018-02-07T11:52:19.324Z,76.00
2018-02-07T11:54:46.881Z,75.40
2018-02-07T11:57:14.422Z,75.10
2018-02-07T11:59:41.993Z,75.30
2018-02-07T12:02:09.533Z,75.00
2018-02-07T12:04:37.072Z,74.70
2018-02-07T12:07:04.608Z,74.90
2018-02-07T12:09:32.941Z,74.60
2018-02-07T12:12:00.548Z,74.50
2018-02-07T12:14:28.115Z,74.20
2018-02-07T12:16:56.597Z,73.90
2018-02-07T12:19:24.947Z,74.10
2018-02-07T12:21:52.641Z,74.00
2018-02-07T12:24:20.334Z,74.50
2018-02-07T12:26:47.998Z,73.20
2018-02-07T12:29:15.653Z,72.90
2018-02-07T12:31:43.333Z,73.40
2018-02-07T12:34:11.576Z,73.40
2018-02-07T12:36:39.234Z,72.40
2018-02-07T12:39:07.589Z,71.20
2018-02-07T12:41:35.140Z,71.20
2018-02-07T12:44:02.683Z,71.60
2018-02-07T12:46:30.253Z,72.00
2018-02-07T12:48:57.781Z,72.30
2018-02-07T12:51:25.332Z,71.10
2018-02-07T12:53:52.890Z,71.50
2018-02-07T12:56:20.581Z,71.20
2018-02-07T12:58:48.241Z,70.60
2018-02-07T13:01:15.806Z,69.50
2018-02-07T13:03:43.367Z,70.90
2018-02-07T13:06:11.026Z,71.20
2018-02-07T13:08:38.568Z,70.60
2018-02-07T13:11:06.175Z,70.80
2018-02-07T13:13:33.744Z,70.60
2018-02-07T13:16:02.061Z,70.50
2018-02-07T13:18:29.596Z,70.40
2018-02-07T13:20:57.141Z,69.70
2018-02-07T13:23:25.446Z,70.40
2018-02-07T13:25:53.003Z,70.30
2018-02-07T13:28:20.548Z,70.40
2018-02-07T13:30:48.117Z,69.70
2018-02-07T13:33:15.644Z,68.50
2018-02-07T13:35:43.977Z,68.30
2018-02-07T13:38:11.534Z,68.30
2018-02-07T13:40:39.109Z,69.20
2018-02-07T13:43:07.398Z,69.20
2018-02-07T13:45:35.059Z,69.20
2018-02-07T13:48:02.711Z,69.90
2018-02-07T13:50:30.439Z,68.10
2018-02-07T13:52:58.002Z,68.30
2018-02-07T13:55:25.582Z,68.40
2018-02-07T13:57:53.113Z,68.60
2018-02-07T14:00:20.638Z,68.60
2018-02-07T14:02:48.319Z,67.70
2018-02-07T14:05:16.625Z,67.60
2018-02-07T14:07:44.243Z,67.60
2018-02-07T14:10:12.683Z,68.10
2018-02-07T14:12:40.242Z,68.10
2018-02-07T14:15:07.866Z,67.10
2018-02-07T14:17:35.432Z,67.70
2018-02-07T14:20:02.920Z,68.00
2018-02-07T14:22:31.712Z,66.90
2018-02-07T14:24:59.332Z,66.70
2018-02-07T14:27:26.966Z,67.30
2018-02-07T14:29:54.551Z,67.50
2018-02-07T14:32:22.849Z,66.60
2018-02-07T14:34:50.405Z,66.60
2018-02-07T14:37:17.949Z,67.10
2018-02-07T14:39:45.540Z,67.50
2018-02-07T14:42:16.230Z,67.40
2018-02-07T14:44:43.874Z,67.80
2018-02-07T14:47:13.329Z,69.20
2018-02-07T14:49:40.920Z,68.90
2018-02-07T14:52:08.485Z,68.50
2018-02-07T14:54:36.074Z,68.40
2018-02-07T14:57:04.382Z,67.90
2018-02-07T14:59:32.056Z,67.60
2018-02-07T15:02:00.454Z,68.00
2018-02-07T15:04:29.042Z,67.40
2018-02-07T15:06:56.562Z,68.50
2018-02-07T15:09:24.107Z,68.40
2018-02-07T15:11:51.666Z,67.20
2018-02-07T15:14:19.984Z,66.60
2018-02-07T15:16:49.305Z,67.20
2018-02-07T15:19:16.867Z,67.10
2018-02-07T15:21:44.405Z,66.70
2018-02-07T15:24:11.964Z,67.90
2018-02-07T15:26:39.551Z,68.40
2018-02-07T15:29:07.099Z,67.50
2018-02-07T15:31:34.663Z,67.00
2018-02-07T15:34:02.212Z,67.10
2018-02-07T15:36:29.830Z,67.40
2018-02-07T15:38:58.164Z,68.20
2018-02-07T15:41:25.765Z,68.20
2018-02-07T15:43:53.315Z,68.90
2018-02-07T15:46:21.604Z,67.60
2018-02-07T15:48:49.160Z,67.60
2018-02-07T15:51:16.701Z,67.80
2018-02-07T15:53:45.023Z,67.40
2018-02-07T15:56:13.346Z,67.30
2018-02-07T15:58:40.862Z,66.90
2018-02-07T16:01:08.421Z,68.00
2018-02-07T16:03:37.809Z,67.90
2018-02-07T16:06:05.378Z,68.50
2018-02-07T16:08:33.682Z,67.30
2018-02-07T16:11:07.860Z,68.00
2018-02-07T16:13:35.404Z,67.80
2018-02-07T16:16:03.726Z,68.40
2018-02-07T16:18:31.256Z,68.40
2018-02-07T16:20:58.802Z,68.30
2018-02-07T16:23:27.065Z,68.60
2018-02-07T16:25:54.638Z,68.50
2018-02-07T16:28:22.934Z,67.90
2018-02-07T16:30:50.498Z,67.80
2018-02-07T16:33:18.032Z,66.80
2018-02-07T16:35:45.570Z,67.80
2018-02-07T16:38:13.086Z,68.30
2018-02-07T16:40:40.568Z,67.10
2018-02-07T16:43:10.658Z,67.10
2018-02-07T16:45:38.209Z,66.20
2018-02-07T16:48:07.704Z,66.90
2018-02-07T16:50:36.032Z,66.30
2018-02-07T16:53:05.046Z,66.20
2018-02-07T16:55:32.614Z,66.60
2018-02-07T16:58:00.151Z,66.20
2018-02-07T17:00:27.681Z,66.90
2018-02-07T17:02:56.078Z,67.20
2018-02-07T17:05:23.621Z,66.50
2018-02-07T17:07:51.204Z,66.70
2018-02-07T17:10:18.762Z,66.90
2018-02-07T17:12:46.521Z,67.30
2018-02-07T17:15:23.391Z,66.90
2018-02-07T17:17:50.899Z,66.80
2018-02-07T17:20:18.409Z,67.10
2018-02-07T17:22:45.975Z,67.80
2018-02-07T17:25:13.508Z,67.00
2018-02-07T17:27:41.024Z,66.00
2018-02-07T17:30:08.546Z,65.40
2018-02-07T17:32:36.076Z,66.20
2018-02-07T17:35:03.567Z,66.80
2018-02-07T17:37:31.081Z,66.90
2018-02-07T17:39:59.374Z,66.70
2018-02-07T17:42:26.897Z,66.60
2018-02-07T17:44:54.453Z,66.60
2018-02-07T17:47:21.993Z,67.70
2018-02-07T17:49:49.537Z,66.30
2018-02-07T17:52:17.080Z,67.40
2018-02-07T17:54:44.663Z,67.80
2018-02-07T17:57:12.214Z,67.00
2018-02-07T17:59:39.755Z,67.30
2018-02-07T18:02:07.309Z,66.90
2018-02-07T18:04:34.843Z,67.00
2018-02-07T18:07:02.403Z,67.00
2018-02-07T18:09:29.966Z,67.40
2018-02-07T18:11:58.270Z,67.00
2018-02-07T18:14:25.814Z,67.00
2018-02-07T18:16:53.384Z,66.90
2018-02-07T18:19:20.946Z,67.00
2018-02-07T18:21:48.469Z,67.00
2018-02-07T18:24:16.030Z,67.00
2018-02-07T18:26:43.625Z,67.40
2018-02-07T18:29:11.163Z,66.70
2018-02-07T18:31:39.505Z,67.80
2018-02-07T18:34:07.028Z,67.80
2018-02-07T18:36:34.585Z,68.30
2018-02-07T18:39:02.122Z,67.60
2018-02-07T18:41:30.465Z,67.50
2018-02-07T18:43:58.086Z,67.40
2018-02-07T18:46:25.587Z,67.20
2018-02-07T18:48:53.133Z,67.60
2018-02-07T18:51:20.674Z,67.70
2018-02-07T18:53:48.218Z,67.80
2018-02-07T18:56:15.753Z,67.40
2018-02-07T18:58:44.048Z,68.30
2018-02-07T19:01:12.450Z,67.80
2018-02-07T19:03:40.003Z,67.80
2018-02-07T19:06:07.531Z,68.00
2018-02-07T19:08:35.838Z,68.00
2018-02-07T19:11:03.365Z,67.90
2018-02-07T19:13:31.683Z,68.20
2018-02-07T19:15:59.237Z,68.20
2018-02-07T19:18:26.796Z,68.00
2018-02-07T19:20:54.366Z,68.10
2018-02-07T19:23:21.978Z,68.80
2018-02-07T19:25:49.547Z,68.30
2018-02-07T19:28:17.886Z,69.00
2018-02-07T19:30:45.431Z,68.90
2018-02-07T19:33:13.662Z,68.70
2018-02-07T19:35:46.501Z,68.60
2018-02-07T19:38:14.081Z,68.60
2018-02-07T19:40:46.531Z,68.90
2018-02-07T19:43:14.095Z,68.50
2018-02-07T19:45:41.753Z,68.90
2018-02-07T19:48:09.294Z,69.50
2018-02-07T19:50:36.843Z,69.30
2018-02-07T19:53:04.389Z,69.60
2018-02-07T19:55:32.017Z,69.60
2018-02-07T19:57:59.572Z,69.80
2018-02-07T20:00:29.251Z,70.20
2018-02-07T20:07:56.778Z,70.60
2018-02-07T20:27:53.517Z,70.10
2018-02-07T20:30:21.060Z,69.90
2018-02-07T20:32:48.616Z,69.90
2018-02-07T20:35:17.151Z,70.00
2018-02-07T20:37:45.594Z,69.60
2018-02-07T20:40:26.383Z,70.30
2018-02-07T20:42:53.933Z,70.60
2018-02-07T20:45:21.511Z,70.00
2018-02-07T20:47:49.064Z,69.50
2018-02-07T20:50:16.580Z,70.10
2018-02-07T20:52:44.142Z,69.80
2018-02-07T20:55:11.731Z,69.80
2018-02-07T20:57:39.308Z,70.20
2018-02-07T21:00:06.863Z,70.50
2018-02-07T21:02:34.436Z,70.80
2018-02-07T21:05:01.953Z,70.80
2018-02-07T21:07:29.516Z,70.80
2018-02-07T21:09:57.097Z,70.90
2018-02-07T21:12:24.667Z,71.10
2018-02-07T21:14:52.236Z,71.70
2018-02-07T21:17:19.793Z,71.30
2018-02-07T21:19:47.330Z,71.40
2018-02-07T21:22:14.873Z,71.40
2018-02-07T21:24:42.458Z,71.10
2018-02-07T21:29:43.878Z,70.60
2018-02-07T21:32:11.637Z,70.40
2018-02-07T21:34:41.429Z,70.00
2018-02-07T21:37:17.406Z,70.60
2018-02-07T21:39:51.741Z,70.00
2018-02-07T21:42:19.398Z,70.00
2018-02-07T21:44:47.422Z,70.60
2018-02-07T21:47:19.244Z,71.20
2018-02-07T21:49:46.897Z,71.40
2018-02-07T21:52:14.981Z,71.20
2018-02-07T21:54:43.352Z,71.70
2018-02-07T21:57:21.332Z,71.00
2018-02-07T21:59:49.690Z,71.80
2018-02-07T22:02:18.140Z,72.10
2018-02-07T22:04:46.585Z,71.80
2018-02-07T22:07:14.275Z,71.50
2018-02-07T22:09:41.804Z,72.20
2018-02-07T22:12:11.287Z,72.00
2018-02-07T22:14:39.688Z,71.90
2018-02-07T22:17:07.454Z,71.90
2018-02-07T22:19:35.155Z,72.40
2018-02-07T22:22:03.114Z,72.30
2018-02-07T22:24:30.760Z,70.80
2018-02-07T22:26:58.369Z,72.30
2018-02-07T22:29:29.943Z,72.60
2018-02-07T22:31:59.666Z,72.80
2018-02-07T22:34:27.381Z,72.80
2018-02-07T22:36:54.947Z,72.90
2018-02-07T22:39:22.593Z,73.60
2018-02-07T22:41:50.189Z,74.20
2018-02-07T22:44:29.247Z,74.80
2018-02-07T22:46:56.892Z,74.60
2018-02-07T22:49:24.530Z,74.80
2018-02-07T22:51:53.101Z,75.60
2018-02-07T22:54:21.074Z,75.50
2018-02-07T22:57:10.751Z,75.70
2018-02-07T22:59:40.018Z,75.70
2018-02-07T23:02:07.714Z,75.40
2018-02-07T23:04:35.328Z,75.50
2018-02-07T23:07:18.123Z,76.10
2018-02-07T23:09:50.769Z,76.70
2018-02-07T23:12:18.831Z,76.60
2018-02-07T23:14:46.584Z,76.00
2018-02-07T23:17:14.257Z,76.20
2018-02-07T23:19:41.960Z,76.00
2018-02-07T23:22:11.648Z,76.50
2018-02-07T23:24:39.913Z,76.40
2018-02-07T23:27:07.609Z,76.80
2018-02-07T23:29:39.810Z,77.40
2018-02-07T23:32:07.530Z,77.30
2018-02-07T23:34:35.884Z,77.50
2018-02-07T23:37:03.585Z,77.40
2018-02-07T23:39:43.846Z,77.80
2018-02-07T23:42:15.272Z,77.90
2018-02-07T23:44:42.826Z,78.20
2018-02-07T23:47:10.337Z,77.90
2018-02-07T23:49:37.874Z,77.70
2018-02-07T23:52:05.466Z,77.80
2018-02-07T23:54:32.980Z,77.70
2018-02-07T23:57:00.543Z,77.30
2018-02-07T23:59:28.848Z,77.40
